sensor_id;sensor_type;location;lat;lon;timestamp;P1;durP1;ratioP1;P2;durP2;ratioP2
9960;SDS011;5021;51.506;11.320;2023-02-26T00:01:40;4.20;;;2.70;;
9960;SDS011;5021;51.506;11.320;2023-02-26T00:04:06;3.83;;;2.40;;
9960;SDS011;5021;51.506;11.320;2023-02-26T00:06:36;4.60;;;2.53;;
9960;SDS011;5021;51.506;11.320;2023-02-26T00:09:03;4.03;;;2.30;;
9960;SDS011;5021;51.506;11.320;2023-02-26T00:11:29;4.30;;;2.50;;
9960;SDS011;5021;51.506;11.320;2023-02-26T00:13:55;5.57;;;2.40;;
9960;SDS011;5021;51.506;11.320;2023-02-26T00:16:32;4.07;;;2.70;;
9960;SDS011;5021;51.506;11.320;2023-02-26T00:18:59;3.77;;;2.40;;
9960;SDS011;5021;51.506;11.320;2023-02-26T00:21:26;4.07;;;2.37;;
9960;SDS011;5021;51.506;11.320;2023-02-26T00:23:52;3.83;;;2.20;;
9960;SDS011;5021;51.506;11.320;2023-02-26T00:26:18;5.90;;;2.57;;
9960;SDS011;5021;51.506;11.320;2023-02-26T00:28:44;4.37;;;2.70;;
9960;SDS011;5021;51.506;11.320;2023-02-26T00:31:10;5.60;;;2.90;;
9960;SDS011;5021;51.506;11.320;2023-02-26T00:33:38;6.80;;;2.50;;
9960;SDS011;5021;51.506;11.320;2023-02-26T00:38:46;4.93;;;2.57;;
9960;SDS011;5021;51.506;11.320;2023-02-26T00:41:14;3.87;;;2.27;;
9960;SDS011;5021;51.506;11.320;2023-02-26T00:43:40;4.30;;;2.47;;
9960;SDS011;5021;51.506;11.320;2023-02-26T00:51:01;2.80;;;2.20;;
9960;SDS011;5021;51.506;11.320;2023-02-26T00:53:41;4.97;;;2.60;;
9960;SDS011;5021;51.506;11.320;2023-02-26T00:56:09;5.50;;;2.50;;
9960;SDS011;5021;51.506;11.320;2023-02-26T00:58:35;3.97;;;2.33;;
9960;SDS011;5021;51.506;11.320;2023-02-26T01:01:00;5.73;;;2.40;;
9960;SDS011;5021;51.506;11.320;2023-02-26T01:03:26;5.20;;;2.50;;
9960;SDS011;5021;51.506;11.320;2023-02-26T01:05:52;5.13;;;2.40;;
9960;SDS011;5021;51.506;11.320;2023-02-26T01:08:22;6.17;;;2.63;;
9960;SDS011;5021;51.506;11.320;2023-02-26T01:10:49;4.70;;;2.23;;
9960;SDS011;5021;51.506;11.320;2023-02-26T01:13:15;4.27;;;2.10;;
9960;SDS011;5021;51.506;11.320;2023-02-26T01:15:43;4.23;;;2.50;;
9960;SDS011;5021;51.506;11.320;2023-02-26T01:18:15;3.83;;;2.43;;
9960;SDS011;5021;51.506;11.320;2023-02-26T01:20:43;11.60;;;2.20;;
9960;SDS011;5021;51.506;11.320;2023-02-26T01:23:14;2.60;;;2.30;;
9960;SDS011;5021;51.506;11.320;2023-02-26T01:26:01;3.10;;;2.57;;
9960;SDS011;5021;51.506;11.320;2023-02-26T01:28:28;8.77;;;2.50;;
9960;SDS011;5021;51.506;11.320;2023-02-26T01:30:55;5.00;;;3.23;;
9960;SDS011;5021;51.506;11.320;2023-02-26T01:33:26;2.57;;;2.20;;
9960;SDS011;5021;51.506;11.320;2023-02-26T01:38:24;3.20;;;2.03;;
9960;SDS011;5021;51.506;11.320;2023-02-26T01:43:27;4.33;;;2.33;;
9960;SDS011;5021;51.506;11.320;2023-02-26T01:45:57;3.43;;;2.20;;
9960;SDS011;5021;51.506;11.320;2023-02-26T01:49:07;8.23;;;2.60;;
9960;SDS011;5021;51.506;11.320;2023-02-26T01:51:14;5.13;;;2.40;;
9960;SDS011;5021;51.506;11.320;2023-02-26T01:53:40;3.47;;;2.50;;
9960;SDS011;5021;51.506;11.320;2023-02-26T01:56:14;3.60;;;2.00;;
9960;SDS011;5021;51.506;11.320;2023-02-26T01:58:41;6.13;;;2.73;;
9960;SDS011;5021;51.506;11.320;2023-02-26T02:01:07;3.83;;;2.13;;
9960;SDS011;5021;51.506;11.320;2023-02-26T02:03:34;4.37;;;2.73;;
9960;SDS011;5021;51.506;11.320;2023-02-26T02:06:03;5.40;;;2.30;;
9960;SDS011;5021;51.506;11.320;2023-02-26T02:08:31;5.43;;;2.53;;
9960;SDS011;5021;51.506;11.320;2023-02-26T02:10:59;4.00;;;2.60;;
9960;SDS011;5021;51.506;11.320;2023-02-26T02:13:29;5.37;;;2.57;;
9960;SDS011;5021;51.506;11.320;2023-02-26T02:18:45;5.73;;;2.50;;
9960;SDS011;5021;51.506;11.320;2023-02-26T02:21:21;3.97;;;2.43;;
9960;SDS011;5021;51.506;11.320;2023-02-26T02:24:00;5.83;;;2.70;;
9960;SDS011;5021;51.506;11.320;2023-02-26T02:26:39;3.73;;;2.20;;
9960;SDS011;5021;51.506;11.320;2023-02-26T02:31:36;5.23;;;2.60;;
9960;SDS011;5021;51.506;11.320;2023-02-26T02:34:09;3.33;;;2.70;;
9960;SDS011;5021;51.506;11.320;2023-02-26T02:36:38;3.70;;;2.30;;
9960;SDS011;5021;51.506;11.320;2023-02-26T02:39:07;6.83;;;2.80;;
9960;SDS011;5021;51.506;11.320;2023-02-26T02:41:45;2.47;;;2.03;;
9960;SDS011;5021;51.506;11.320;2023-02-26T02:44:13;4.83;;;2.87;;
9960;SDS011;5021;51.506;11.320;2023-02-26T02:46:40;3.60;;;2.83;;
9960;SDS011;5021;51.506;11.320;2023-02-26T02:49:10;6.13;;;2.90;;
9960;SDS011;5021;51.506;11.320;2023-02-26T02:54:05;6.77;;;2.57;;
9960;SDS011;5021;51.506;11.320;2023-02-26T02:59:09;5.60;;;2.60;;
9960;SDS011;5021;51.506;11.320;2023-02-26T03:01:36;4.30;;;2.50;;
9960;SDS011;5021;51.506;11.320;2023-02-26T03:04:07;4.23;;;2.50;;
9960;SDS011;5021;51.506;11.320;2023-02-26T03:06:33;3.63;;;2.70;;
9960;SDS011;5021;51.506;11.320;2023-02-26T03:09:00;3.83;;;2.40;;
9960;SDS011;5021;51.506;11.320;2023-02-26T03:11:28;3.23;;;2.63;;
9960;SDS011;5021;51.506;11.320;2023-02-26T03:13:54;4.63;;;2.90;;
9960;SDS011;5021;51.506;11.320;2023-02-26T03:21:38;5.67;;;2.70;;
9960;SDS011;5021;51.506;11.320;2023-02-26T03:26:43;5.90;;;2.53;;
9960;SDS011;5021;51.506;11.320;2023-02-26T03:29:14;3.20;;;2.70;;
9960;SDS011;5021;51.506;11.320;2023-02-26T03:31:48;4.63;;;2.80;;
9960;SDS011;5021;51.506;11.320;2023-02-26T03:34:18;3.80;;;3.13;;
9960;SDS011;5021;51.506;11.320;2023-02-26T03:36:49;4.33;;;2.50;;
9960;SDS011;5021;51.506;11.320;2023-02-26T03:39:26;4.70;;;2.70;;
9960;SDS011;5021;51.506;11.320;2023-02-26T03:44:41;4.37;;;2.70;;
9960;SDS011;5021;51.506;11.320;2023-02-26T03:47:10;2.73;;;2.53;;
9960;SDS011;5021;51.506;11.320;2023-02-26T03:49:43;6.43;;;2.83;;
9960;SDS011;5021;51.506;11.320;2023-02-26T03:52:09;4.77;;;2.70;;
9960;SDS011;5021;51.506;11.320;2023-02-26T03:54:57;5.83;;;2.43;;
9960;SDS011;5021;51.506;11.320;2023-02-26T03:57:24;3.87;;;2.73;;
9960;SDS011;5021;51.506;11.320;2023-02-26T03:59:50;4.53;;;3.20;;
9960;SDS011;5021;51.506;11.320;2023-02-26T04:02:18;4.83;;;2.57;;
9960;SDS011;5021;51.506;11.320;2023-02-26T04:04:53;4.23;;;2.67;;
9960;SDS011;5021;51.506;11.320;2023-02-26T04:07:20;4.30;;;2.47;;
9960;SDS011;5021;51.506;11.320;2023-02-26T04:09:48;7.97;;;4.33;;
9960;SDS011;5021;51.506;11.320;2023-02-26T04:12:19;4.93;;;2.77;;
9960;SDS011;5021;51.506;11.320;2023-02-26T04:14:46;5.47;;;3.40;;
9960;SDS011;5021;51.506;11.320;2023-02-26T04:17:11;5.20;;;4.20;;
9960;SDS011;5021;51.506;11.320;2023-02-26T04:19:37;3.10;;;2.83;;
9960;SDS011;5021;51.506;11.320;2023-02-26T04:22:03;4.23;;;2.43;;
9960;SDS011;5021;51.506;11.320;2023-02-26T04:24:29;3.77;;;2.63;;
9960;SDS011;5021;51.506;11.320;2023-02-26T04:26:55;3.57;;;2.67;;
9960;SDS011;5021;51.506;11.320;2023-02-26T04:29:21;3.50;;;2.40;;
9960;SDS011;5021;51.506;11.320;2023-02-26T04:31:47;3.27;;;2.60;;
9960;SDS011;5021;51.506;11.320;2023-02-26T04:34:13;3.97;;;2.50;;
9960;SDS011;5021;51.506;11.320;2023-02-26T04:36:39;4.00;;;2.43;;
9960;SDS011;5021;51.506;11.320;2023-02-26T04:39:05;3.13;;;2.57;;
9960;SDS011;5021;51.506;11.320;2023-02-26T04:41:31;4.57;;;2.67;;
9960;SDS011;5021;51.506;11.320;2023-02-26T04:43:57;3.97;;;2.70;;
9960;SDS011;5021;51.506;11.320;2023-02-26T04:46:22;2.97;;;2.47;;
9960;SDS011;5021;51.506;11.320;2023-02-26T04:48:48;5.67;;;2.67;;
9960;SDS011;5021;51.506;11.320;2023-02-26T04:51:14;5.07;;;2.87;;
9960;SDS011;5021;51.506;11.320;2023-02-26T04:53:40;6.23;;;2.57;;
9960;SDS011;5021;51.506;11.320;2023-02-26T04:56:06;6.17;;;2.50;;
9960;SDS011;5021;51.506;11.320;2023-02-26T04:58:33;7.37;;;2.83;;
9960;SDS011;5021;51.506;11.320;2023-02-26T05:00:59;4.10;;;3.10;;
9960;SDS011;5021;51.506;11.320;2023-02-26T05:03:25;6.80;;;2.93;;
9960;SDS011;5021;51.506;11.320;2023-02-26T05:05:50;2.77;;;2.47;;
9960;SDS011;5021;51.506;11.320;2023-02-26T05:08:16;3.57;;;2.40;;
9960;SDS011;5021;51.506;11.320;2023-02-26T05:10:42;4.83;;;2.87;;
9960;SDS011;5021;51.506;11.320;2023-02-26T05:13:08;3.50;;;2.80;;
9960;SDS011;5021;51.506;11.320;2023-02-26T05:15:34;4.07;;;2.70;;
9960;SDS011;5021;51.506;11.320;2023-02-26T05:18:00;3.40;;;2.73;;
9960;SDS011;5021;51.506;11.320;2023-02-26T05:20:26;3.53;;;2.40;;
9960;SDS011;5021;51.506;11.320;2023-02-26T05:22:52;2.60;;;2.40;;
9960;SDS011;5021;51.506;11.320;2023-02-26T05:25:18;3.67;;;2.87;;
9960;SDS011;5021;51.506;11.320;2023-02-26T05:27:44;4.87;;;2.93;;
9960;SDS011;5021;51.506;11.320;2023-02-26T05:30:10;3.27;;;2.33;;
9960;SDS011;5021;51.506;11.320;2023-02-26T05:32:37;3.90;;;2.40;;
9960;SDS011;5021;51.506;11.320;2023-02-26T05:35:06;4.13;;;2.83;;
9960;SDS011;5021;51.506;11.320;2023-02-26T05:37:32;5.50;;;2.83;;
9960;SDS011;5021;51.506;11.320;2023-02-26T05:39:58;4.13;;;2.30;;
9960;SDS011;5021;51.506;11.320;2023-02-26T05:42:24;3.80;;;2.40;;
9960;SDS011;5021;51.506;11.320;2023-02-26T05:44:50;5.30;;;2.80;;
9960;SDS011;5021;51.506;11.320;2023-02-26T05:47:16;4.30;;;2.40;;
9960;SDS011;5021;51.506;11.320;2023-02-26T05:49:42;2.40;;;2.20;;
9960;SDS011;5021;51.506;11.320;2023-02-26T05:52:08;3.37;;;2.27;;
9960;SDS011;5021;51.506;11.320;2023-02-26T05:54:34;2.67;;;2.30;;
9960;SDS011;5021;51.506;11.320;2023-02-26T05:57:00;3.33;;;2.27;;
9960;SDS011;5021;51.506;11.320;2023-02-26T05:59:26;5.47;;;3.13;;
9960;SDS011;5021;51.506;11.320;2023-02-26T06:01:52;7.30;;;4.80;;
9960;SDS011;5021;51.506;11.320;2023-02-26T06:04:18;6.17;;;4.77;;
9960;SDS011;5021;51.506;11.320;2023-02-26T06:06:44;4.83;;;3.10;;
9960;SDS011;5021;51.506;11.320;2023-02-26T06:09:09;2.80;;;2.50;;
9960;SDS011;5021;51.506;11.320;2023-02-26T06:11:35;5.20;;;3.27;;
9960;SDS011;5021;51.506;11.320;2023-02-26T06:14:03;4.33;;;3.37;;
9960;SDS011;5021;51.506;11.320;2023-02-26T06:16:29;4.73;;;3.50;;
9960;SDS011;5021;51.506;11.320;2023-02-26T06:18:56;3.60;;;2.50;;
9960;SDS011;5021;51.506;11.320;2023-02-26T06:21:22;3.70;;;2.90;;
9960;SDS011;5021;51.506;11.320;2023-02-26T06:23:48;3.80;;;2.60;;
9960;SDS011;5021;51.506;11.320;2023-02-26T06:26:14;6.17;;;3.63;;
9960;SDS011;5021;51.506;11.320;2023-02-26T06:28:40;5.73;;;4.10;;
9960;SDS011;5021;51.506;11.320;2023-02-26T06:31:06;6.63;;;3.53;;
9960;SDS011;5021;51.506;11.320;2023-02-26T06:33:32;7.50;;;4.63;;
9960;SDS011;5021;51.506;11.320;2023-02-26T06:35:57;5.00;;;3.87;;
9960;SDS011;5021;51.506;11.320;2023-02-26T06:38:24;8.13;;;4.83;;
9960;SDS011;5021;51.506;11.320;2023-02-26T06:40:50;16.27;;;7.70;;
9960;SDS011;5021;51.506;11.320;2023-02-26T06:43:16;16.77;;;8.37;;
9960;SDS011;5021;51.506;11.320;2023-02-26T06:45:42;5.17;;;3.33;;
9960;SDS011;5021;51.506;11.320;2023-02-26T06:48:09;6.73;;;2.97;;
9960;SDS011;5021;51.506;11.320;2023-02-26T06:50:34;11.93;;;6.77;;
9960;SDS011;5021;51.506;11.320;2023-02-26T06:53:00;7.90;;;4.60;;
9960;SDS011;5021;51.506;11.320;2023-02-26T06:55:26;14.07;;;7.37;;
9960;SDS011;5021;51.506;11.320;2023-02-26T06:57:53;7.57;;;3.87;;
9960;SDS011;5021;51.506;11.320;2023-02-26T07:00:19;8.90;;;3.10;;
9960;SDS011;5021;51.506;11.320;2023-02-26T07:02:46;5.37;;;3.47;;
9960;SDS011;5021;51.506;11.320;2023-02-26T07:05:11;6.30;;;3.73;;
9960;SDS011;5021;51.506;11.320;2023-02-26T07:07:37;7.30;;;3.90;;
9960;SDS011;5021;51.506;11.320;2023-02-26T07:10:04;11.20;;;5.43;;
9960;SDS011;5021;51.506;11.320;2023-02-26T07:12:30;11.43;;;6.33;;
9960;SDS011;5021;51.506;11.320;2023-02-26T07:14:55;7.37;;;4.20;;
9960;SDS011;5021;51.506;11.320;2023-02-26T07:17:21;8.93;;;4.13;;
9960;SDS011;5021;51.506;11.320;2023-02-26T07:19:48;4.17;;;2.73;;
9960;SDS011;5021;51.506;11.320;2023-02-26T07:22:14;4.47;;;2.93;;
9960;SDS011;5021;51.506;11.320;2023-02-26T07:24:41;4.23;;;3.33;;
9960;SDS011;5021;51.506;11.320;2023-02-26T07:27:07;4.23;;;2.53;;
9960;SDS011;5021;51.506;11.320;2023-02-26T07:29:33;3.83;;;2.23;;
9960;SDS011;5021;51.506;11.320;2023-02-26T07:31:59;4.33;;;2.27;;
9960;SDS011;5021;51.506;11.320;2023-02-26T07:34:25;3.63;;;2.30;;
9960;SDS011;5021;51.506;11.320;2023-02-26T07:36:51;5.33;;;2.50;;
9960;SDS011;5021;51.506;11.320;2023-02-26T07:39:17;5.80;;;2.87;;
9960;SDS011;5021;51.506;11.320;2023-02-26T07:41:42;4.40;;;2.10;;
9960;SDS011;5021;51.506;11.320;2023-02-26T07:44:08;7.03;;;2.47;;
9960;SDS011;5021;51.506;11.320;2023-02-26T07:46:34;3.20;;;2.30;;
9960;SDS011;5021;51.506;11.320;2023-02-26T07:49:00;2.70;;;2.50;;
9960;SDS011;5021;51.506;11.320;2023-02-26T07:51:26;3.47;;;2.97;;
9960;SDS011;5021;51.506;11.320;2023-02-26T07:53:52;4.90;;;2.63;;
9960;SDS011;5021;51.506;11.320;2023-02-26T07:56:18;4.97;;;2.90;;
9960;SDS011;5021;51.506;11.320;2023-02-26T07:58:44;6.53;;;2.90;;
9960;SDS011;5021;51.506;11.320;2023-02-26T08:01:10;3.23;;;2.70;;
9960;SDS011;5021;51.506;11.320;2023-02-26T08:03:36;4.37;;;2.80;;
9960;SDS011;5021;51.506;11.320;2023-02-26T08:06:02;5.27;;;2.63;;
9960;SDS011;5021;51.506;11.320;2023-02-26T08:08:29;3.57;;;2.60;;
9960;SDS011;5021;51.506;11.320;2023-02-26T08:10:58;2.20;;;2.00;;
9960;SDS011;5021;51.506;11.320;2023-02-26T08:13:24;4.80;;;2.27;;
9960;SDS011;5021;51.506;11.320;2023-02-26T08:15:50;5.33;;;3.33;;
9960;SDS011;5021;51.506;11.320;2023-02-26T08:18:16;5.13;;;2.73;;
9960;SDS011;5021;51.506;11.320;2023-02-26T08:20:42;6.73;;;4.43;;
9960;SDS011;5021;51.506;11.320;2023-02-26T08:23:07;4.20;;;2.80;;
9960;SDS011;5021;51.506;11.320;2023-02-26T08:25:33;4.27;;;2.97;;
9960;SDS011;5021;51.506;11.320;2023-02-26T08:27:59;2.30;;;2.10;;
9960;SDS011;5021;51.506;11.320;2023-02-26T08:30:27;1.93;;;1.60;;
9960;SDS011;5021;51.506;11.320;2023-02-26T08:32:53;3.33;;;1.70;;
9960;SDS011;5021;51.506;11.320;2023-02-26T08:35:18;4.90;;;2.37;;
9960;SDS011;5021;51.506;11.320;2023-02-26T08:37:44;3.33;;;2.33;;
9960;SDS011;5021;51.506;11.320;2023-02-26T08:40:10;3.50;;;1.93;;
9960;SDS011;5021;51.506;11.320;2023-02-26T08:42:36;3.67;;;2.37;;
9960;SDS011;5021;51.506;11.320;2023-02-26T08:45:02;3.27;;;1.57;;
9960;SDS011;5021;51.506;11.320;2023-02-26T08:47:28;1.77;;;1.63;;
9960;SDS011;5021;51.506;11.320;2023-02-26T08:49:54;2.33;;;2.00;;
9960;SDS011;5021;51.506;11.320;2023-02-26T08:52:21;1.90;;;1.80;;
9960;SDS011;5021;51.506;11.320;2023-02-26T08:54:47;3.20;;;2.00;;
9960;SDS011;5021;51.506;11.320;2023-02-26T08:57:13;3.70;;;2.40;;
9960;SDS011;5021;51.506;11.320;2023-02-26T08:59:39;2.40;;;1.73;;
9960;SDS011;5021;51.506;11.320;2023-02-26T09:02:05;3.17;;;2.07;;
9960;SDS011;5021;51.506;11.320;2023-02-26T09:04:31;5.70;;;2.37;;
9960;SDS011;5021;51.506;11.320;2023-02-26T09:06:57;5.77;;;1.93;;
9960;SDS011;5021;51.506;11.320;2023-02-26T09:09:23;2.20;;;1.97;;
9960;SDS011;5021;51.506;11.320;2023-02-26T09:11:49;4.50;;;2.33;;
9960;SDS011;5021;51.506;11.320;2023-02-26T09:14:15;3.43;;;2.13;;
9960;SDS011;5021;51.506;11.320;2023-02-26T09:16:40;3.83;;;2.40;;
9960;SDS011;5021;51.506;11.320;2023-02-26T09:19:06;3.17;;;2.10;;
9960;SDS011;5021;51.506;11.320;2023-02-26T09:21:33;3.27;;;1.70;;
9960;SDS011;5021;51.506;11.320;2023-02-26T09:23:59;2.17;;;1.73;;
9960;SDS011;5021;51.506;11.320;2023-02-26T09:26:26;2.40;;;1.90;;
9960;SDS011;5021;51.506;11.320;2023-02-26T09:28:52;5.23;;;2.30;;
9960;SDS011;5021;51.506;11.320;2023-02-26T09:31:17;4.10;;;2.97;;
9960;SDS011;5021;51.506;11.320;2023-02-26T09:33:43;3.37;;;2.60;;
9960;SDS011;5021;51.506;11.320;2023-02-26T09:36:09;7.07;;;3.57;;
9960;SDS011;5021;51.506;11.320;2023-02-26T09:38:35;3.23;;;2.40;;
9960;SDS011;5021;51.506;11.320;2023-02-26T09:41:05;2.80;;;2.20;;
9960;SDS011;5021;51.506;11.320;2023-02-26T09:43:50;3.20;;;1.97;;
9960;SDS011;5021;51.506;11.320;2023-02-26T09:48:50;3.27;;;1.83;;
9960;SDS011;5021;51.506;11.320;2023-02-26T09:51:20;2.77;;;1.90;;
9960;SDS011;5021;51.506;11.320;2023-02-26T09:53:47;3.07;;;1.93;;
9960;SDS011;5021;51.506;11.320;2023-02-26T09:56:15;5.83;;;1.80;;
9960;SDS011;5021;51.506;11.320;2023-02-26T09:58:42;3.30;;;2.00;;
9960;SDS011;5021;51.506;11.320;2023-02-26T10:01:13;2.50;;;2.27;;
9960;SDS011;5021;51.506;11.320;2023-02-26T10:03:49;2.67;;;1.80;;
9960;SDS011;5021;51.506;11.320;2023-02-26T10:06:30;4.10;;;1.93;;
9960;SDS011;5021;51.506;11.320;2023-02-26T10:14:30;3.70;;;2.27;;
9960;SDS011;5021;51.506;11.320;2023-02-26T10:16:56;5.23;;;2.57;;
9960;SDS011;5021;51.506;11.320;2023-02-26T10:19:26;4.27;;;2.90;;
9960;SDS011;5021;51.506;11.320;2023-02-26T10:22:10;9.87;;;4.40;;
9960;SDS011;5021;51.506;11.320;2023-02-26T10:24:41;1.93;;;1.63;;
9960;SDS011;5021;51.506;11.320;2023-02-26T10:27:12;1.57;;;1.47;;
9960;SDS011;5021;51.506;11.320;2023-02-26T10:29:57;6.47;;;3.73;;
9960;SDS011;5021;51.506;11.320;2023-02-26T10:32:25;3.07;;;2.30;;
9960;SDS011;5021;51.506;11.320;2023-02-26T10:34:57;2.03;;;1.83;;
9960;SDS011;5021;51.506;11.320;2023-02-26T10:40:13;8.57;;;4.23;;
9960;SDS011;5021;51.506;11.320;2023-02-26T10:42:42;3.03;;;2.20;;
9960;SDS011;5021;51.506;11.320;2023-02-26T10:45:21;4.63;;;2.70;;
9960;SDS011;5021;51.506;11.320;2023-02-26T10:47:54;2.10;;;1.90;;
9960;SDS011;5021;51.506;11.320;2023-02-26T10:50:21;2.80;;;1.80;;
9960;SDS011;5021;51.506;11.320;2023-02-26T10:52:48;2.07;;;1.83;;
9960;SDS011;5021;51.506;11.320;2023-02-26T10:58:02;3.37;;;1.93;;
9960;SDS011;5021;51.506;11.320;2023-02-26T11:00:28;2.10;;;1.83;;
9960;SDS011;5021;51.506;11.320;2023-02-26T11:02:54;2.07;;;1.60;;
9960;SDS011;5021;51.506;11.320;2023-02-26T11:05:25;2.37;;;1.87;;
9960;SDS011;5021;51.506;11.320;2023-02-26T11:07:56;1.53;;;1.43;;
9960;SDS011;5021;51.506;11.320;2023-02-26T11:10:23;1.70;;;1.60;;
9960;SDS011;5021;51.506;11.320;2023-02-26T11:12:50;1.60;;;1.50;;
9960;SDS011;5021;51.506;11.320;2023-02-26T11:15:17;1.70;;;1.60;;
9960;SDS011;5021;51.506;11.320;2023-02-26T11:17:44;2.40;;;1.73;;
9960;SDS011;5021;51.506;11.320;2023-02-26T11:20:12;3.60;;;1.83;;
9960;SDS011;5021;51.506;11.320;2023-02-26T11:22:40;1.63;;;1.53;;
9960;SDS011;5021;51.506;11.320;2023-02-26T11:25:12;1.83;;;1.53;;
9960;SDS011;5021;51.506;11.320;2023-02-26T11:27:38;2.00;;;1.63;;
9960;SDS011;5021;51.506;11.320;2023-02-26T11:30:15;2.73;;;2.13;;
9960;SDS011;5021;51.506;11.320;2023-02-26T11:32:42;3.13;;;1.70;;
9960;SDS011;5021;51.506;11.320;2023-02-26T11:35:12;1.47;;;1.37;;
9960;SDS011;5021;51.506;11.320;2023-02-26T11:37:39;3.43;;;1.70;;
9960;SDS011;5021;51.506;11.320;2023-02-26T11:40:12;2.13;;;1.93;;
9960;SDS011;5021;51.506;11.320;2023-02-26T11:42:41;2.50;;;1.60;;
9960;SDS011;5021;51.506;11.320;2023-02-26T11:45:11;2.53;;;1.53;;
9960;SDS011;5021;51.506;11.320;2023-02-26T11:47:38;2.93;;;1.70;;
9960;SDS011;5021;51.506;11.320;2023-02-26T11:50:09;2.27;;;1.70;;
9960;SDS011;5021;51.506;11.320;2023-02-26T11:52:41;2.63;;;2.00;;
9960;SDS011;5021;51.506;11.320;2023-02-26T11:55:19;2.37;;;1.97;;
9960;SDS011;5021;51.506;11.320;2023-02-26T11:57:49;2.43;;;1.73;;
9960;SDS011;5021;51.506;11.320;2023-02-26T12:00:19;2.73;;;1.50;;
9960;SDS011;5021;51.506;11.320;2023-02-26T12:02:45;2.97;;;1.83;;
9960;SDS011;5021;51.506;11.320;2023-02-26T12:05:12;2.30;;;1.60;;
9960;SDS011;5021;51.506;11.320;2023-02-26T12:07:40;1.70;;;1.60;;
9960;SDS011;5021;51.506;11.320;2023-02-26T12:10:12;2.40;;;1.40;;
9960;SDS011;5021;51.506;11.320;2023-02-26T12:12:45;1.93;;;1.60;;
9960;SDS011;5021;51.506;11.320;2023-02-26T12:15:38;2.93;;;1.80;;
9960;SDS011;5021;51.506;11.320;2023-02-26T12:18:04;2.20;;;2.00;;
9960;SDS011;5021;51.506;11.320;2023-02-26T12:20:40;2.97;;;1.97;;
9960;SDS011;5021;51.506;11.320;2023-02-26T12:23:22;1.97;;;1.80;;
9960;SDS011;5021;51.506;11.320;2023-02-26T12:31:11;1.50;;;1.40;;
9960;SDS011;5021;51.506;11.320;2023-02-26T12:36:15;2.87;;;1.50;;
9960;SDS011;5021;51.506;11.320;2023-02-26T12:38:50;2.33;;;1.70;;
9960;SDS011;5021;51.506;11.320;2023-02-26T12:44:02;3.57;;;1.93;;
9960;SDS011;5021;51.506;11.320;2023-02-26T12:46:34;2.50;;;2.30;;
9960;SDS011;5021;51.506;11.320;2023-02-26T12:54:12;2.63;;;1.97;;
9960;SDS011;5021;51.506;11.320;2023-02-26T12:56:47;2.07;;;1.47;;
9960;SDS011;5021;51.506;11.320;2023-02-26T12:59:24;2.70;;;1.50;;
9960;SDS011;5021;51.506;11.320;2023-02-26T13:02:02;4.23;;;1.60;;
9960;SDS011;5021;51.506;11.320;2023-02-26T13:04:49;2.40;;;1.50;;
9960;SDS011;5021;51.506;11.320;2023-02-26T13:07:35;4.10;;;1.73;;
9960;SDS011;5021;51.506;11.320;2023-02-26T13:10:09;4.43;;;2.10;;
9960;SDS011;5021;51.506;11.320;2023-02-26T13:12:40;1.87;;;1.67;;
9960;SDS011;5021;51.506;11.320;2023-02-26T13:20:30;2.20;;;1.87;;
9960;SDS011;5021;51.506;11.320;2023-02-26T13:23:11;4.03;;;1.93;;
9960;SDS011;5021;51.506;11.320;2023-02-26T13:28:19;4.80;;;2.80;;
9960;SDS011;5021;51.506;11.320;2023-02-26T13:30:48;3.67;;;1.70;;
9960;SDS011;5021;51.506;11.320;2023-02-26T13:33:17;3.90;;;2.07;;
9960;SDS011;5021;51.506;11.320;2023-02-26T13:35:44;3.60;;;2.40;;
9960;SDS011;5021;51.506;11.320;2023-02-26T13:38:13;2.37;;;1.80;;
9960;SDS011;5021;51.506;11.320;2023-02-26T13:51:24;3.43;;;2.07;;
9960;SDS011;5021;51.506;11.320;2023-02-26T13:53:53;2.33;;;2.00;;
9960;SDS011;5021;51.506;11.320;2023-02-26T13:56:21;4.73;;;2.70;;
9960;SDS011;5021;51.506;11.320;2023-02-26T13:58:51;4.87;;;2.53;;
9960;SDS011;5021;51.506;11.320;2023-02-26T14:01:19;4.53;;;2.43;;
9960;SDS011;5021;51.506;11.320;2023-02-26T14:03:47;2.73;;;2.10;;
9960;SDS011;5021;51.506;11.320;2023-02-26T14:07:15;5.43;;;3.47;;
9960;SDS011;5021;51.506;11.320;2023-02-26T14:14:35;6.80;;;3.07;;
9960;SDS011;5021;51.506;11.320;2023-02-26T14:19:32;5.43;;;4.07;;
9960;SDS011;5021;51.506;11.320;2023-02-26T14:24:44;5.33;;;2.97;;
9960;SDS011;5021;51.506;11.320;2023-02-26T14:29:40;3.47;;;2.07;;
9960;SDS011;5021;51.506;11.320;2023-02-26T14:34:38;1.90;;;1.60;;
9960;SDS011;5021;51.506;11.320;2023-02-26T14:37:07;2.50;;;1.50;;
9960;SDS011;5021;51.506;11.320;2023-02-26T14:39:36;1.80;;;1.50;;
9960;SDS011;5021;51.506;11.320;2023-02-26T14:42:04;2.50;;;1.70;;
9960;SDS011;5021;51.506;11.320;2023-02-26T14:44:33;5.93;;;4.10;;
9960;SDS011;5021;51.506;11.320;2023-02-26T14:47:00;5.57;;;3.20;;
9960;SDS011;5021;51.506;11.320;2023-02-26T14:49:40;2.13;;;1.80;;
9960;SDS011;5021;51.506;11.320;2023-02-26T14:52:28;5.63;;;2.60;;
9960;SDS011;5021;51.506;11.320;2023-02-26T14:55:22;7.87;;;3.83;;
9960;SDS011;5021;51.506;11.320;2023-02-26T14:57:51;4.07;;;2.80;;
9960;SDS011;5021;51.506;11.320;2023-02-26T15:00:30;3.30;;;2.30;;
9960;SDS011;5021;51.506;11.320;2023-02-26T15:05:50;16.23;;;7.50;;
9960;SDS011;5021;51.506;11.320;2023-02-26T15:08:29;6.97;;;4.17;;
9960;SDS011;5021;51.506;11.320;2023-02-26T15:16:22;2.40;;;2.20;;
9960;SDS011;5021;51.506;11.320;2023-02-26T15:24:09;4.17;;;1.83;;
9960;SDS011;5021;51.506;11.320;2023-02-26T15:26:36;2.57;;;1.93;;
9960;SDS011;5021;51.506;11.320;2023-02-26T15:29:05;2.40;;;1.73;;
9960;SDS011;5021;51.506;11.320;2023-02-26T15:34:21;2.17;;;1.67;;
9960;SDS011;5021;51.506;11.320;2023-02-26T15:36:50;4.57;;;2.00;;
9960;SDS011;5021;51.506;11.320;2023-02-26T15:39:18;3.30;;;1.90;;
9960;SDS011;5021;51.506;11.320;2023-02-26T15:41:48;2.73;;;1.80;;
9960;SDS011;5021;51.506;11.320;2023-02-26T15:44:22;3.83;;;2.20;;
9960;SDS011;5021;51.506;11.320;2023-02-26T15:46:52;4.27;;;2.30;;
9960;SDS011;5021;51.506;11.320;2023-02-26T15:49:23;5.33;;;2.90;;
9960;SDS011;5021;51.506;11.320;2023-02-26T15:51:50;4.80;;;2.70;;
9960;SDS011;5021;51.506;11.320;2023-02-26T15:54:17;1.80;;;1.70;;
9960;SDS011;5021;51.506;11.320;2023-02-26T15:56:44;2.33;;;1.80;;
9960;SDS011;5021;51.506;11.320;2023-02-26T15:59:18;2.23;;;1.83;;
9960;SDS011;5021;51.506;11.320;2023-02-26T16:01:46;1.73;;;1.60;;
9960;SDS011;5021;51.506;11.320;2023-02-26T16:04:14;2.60;;;2.07;;
9960;SDS011;5021;51.506;11.320;2023-02-26T16:06:41;2.30;;;1.70;;
9960;SDS011;5021;51.506;11.320;2023-02-26T16:09:14;2.70;;;2.50;;
9960;SDS011;5021;51.506;11.320;2023-02-26T16:11:40;2.23;;;1.80;;
9960;SDS011;5021;51.506;11.320;2023-02-26T16:14:07;2.43;;;1.83;;
9960;SDS011;5021;51.506;11.320;2023-02-26T16:16:40;3.50;;;2.10;;
9960;SDS011;5021;51.506;11.320;2023-02-26T16:19:07;2.60;;;1.90;;
9960;SDS011;5021;51.506;11.320;2023-02-26T16:21:35;1.97;;;1.70;;
9960;SDS011;5021;51.506;11.320;2023-02-26T16:24:03;3.80;;;2.47;;
9960;SDS011;5021;51.506;11.320;2023-02-26T16:26:30;2.73;;;2.00;;
9960;SDS011;5021;51.506;11.320;2023-02-26T16:29:01;2.00;;;1.80;;
9960;SDS011;5021;51.506;11.320;2023-02-26T16:31:29;3.17;;;2.60;;
9960;SDS011;5021;51.506;11.320;2023-02-26T16:34:01;3.97;;;3.00;;
9960;SDS011;5021;51.506;11.320;2023-02-26T16:36:35;3.47;;;2.50;;
9960;SDS011;5021;51.506;11.320;2023-02-26T16:39:14;2.53;;;2.30;;
9960;SDS011;5021;51.506;11.320;2023-02-26T16:41:45;2.50;;;2.30;;
9960;SDS011;5021;51.506;11.320;2023-02-26T16:46:55;1.90;;;1.63;;
9960;SDS011;5021;51.506;11.320;2023-02-26T16:49:31;4.83;;;2.50;;
9960;SDS011;5021;51.506;11.320;2023-02-26T16:51:58;2.30;;;1.97;;
9960;SDS011;5021;51.506;11.320;2023-02-26T16:56:54;4.30;;;2.97;;
9960;SDS011;5021;51.506;11.320;2023-02-26T16:59:22;3.03;;;2.60;;
9960;SDS011;5021;51.506;11.320;2023-02-26T17:01:52;3.80;;;2.60;;
9960;SDS011;5021;51.506;11.320;2023-02-26T17:04:21;2.07;;;1.87;;
9960;SDS011;5021;51.506;11.320;2023-02-26T17:06:47;2.70;;;2.00;;
9960;SDS011;5021;51.506;11.320;2023-02-26T17:09:30;2.97;;;1.93;;